Latest Coastal Weather Observations for Cato Island

IDQ60701

Issued at 4:01 am EST Saturday 29 April 2017 (issued every 10 minutes, with the page automatically refreshed every 10 minutes)

About coastal observations | Map of coastal stations | Coastal observations for QLD | Marine services | Other Formats
Station Details ID: 200601 Name: CATO ISLAND Lat: -23.25 Lon: 155.54 Height: 6.3 m
Data from the previous 72 hours. | See also: Recent months for locations in Queensland
Date/Time
EST
Temp
°C
Wind Pressure Rain since
9am
mm
Weather Cloud Vis
km
Sea
Height
m
Swell
Dir  Spd
kts
Gust
kts
hPa Trend Height
m
Period
s
Dir
29/04:00am 23.2 SSW 10 13 1012.3 - - - - - - - - -
29/03:30am 23.0 SSW 12 15 1012.2 - - - - - - - - -
29/03:00am 23.1 SSW 14 16 1012.3 - - - - - - - - -
29/02:30am 23.5 SSW 15 18 1012.4 - - - - - - - - -
29/02:00am 23.4 SSW 14 17 1012.4 - - - - - - - - -
29/01:30am 23.5 SSW 15 19 1012.8 - - - - - - - - -
29/01:00am 23.7 SSW 16 20 1012.9 - - - - - - - - -
29/12:30am 23.5 SSW 17 20 1013.0 - - - - - - - - -
29/12:00am 23.7 S 20 23 1013.2 - - - - - - - - -
 
Date/Time
EST
Temp
°C
Wind Pressure Rain since
9am
mm
Weather Cloud Vis
km
Sea
Height
m
Swell
Dir  Spd
kts
Gust
kts
hPa Trend Height
m
Period
s
Dir
28/11:30pm 24.1 S 19 22 1013.5 - - - - - - - - -
28/11:00pm 23.5 S 12 17 1013.7 - - - - - - - - -
28/10:46pm 22.9 SE 14 19 1013.8 - - - - - - - - -
28/10:30pm 23.0 S 22 27 1013.8 - - - - - - - - -
28/10:00pm 24.0 S 20 23 1013.7 - - - - - - - - -
28/09:30pm 23.9 S 20 25 1013.8 - - - - - - - - -
28/09:00pm 24.0 S 23 27 1013.7 - - - - - - - - -
28/08:30pm 23.7 S 23 28 1013.5 - - - - - - - - -
28/08:00pm 23.9 S 24 29 1013.3 - - - - - - - - -
28/07:30pm 23.9 S 23 27 1012.9 - - - - - - - - -
28/07:00pm 23.9 S 24 29 1012.5 - - - - - - - - -
28/06:30pm 23.9 S 23 27 1012.1 - - - - - - - - -
28/06:02pm 23.3 S 21 31 1012.0 - - - - - - - - -
28/06:00pm 22.9 S 22 31 1012.1 - - - - - - - - -
28/05:30pm 23.7 S 22 26 1011.7 - - - - - - - - -
28/05:00pm 22.7 S 16 21 1011.6 - - - - - - - - -
28/04:38pm 23.2 S 19 29 1011.3 - - - - - - - - -
28/04:30pm 22.9 S 22 27 1011.2 - - - - - - - - -
28/04:17pm 22.6 S 17 27 1011.2 - - - - - - - - -
28/04:00pm 22.9 S 22 29 1011.0 - - - - - - - - -
28/03:51pm 23.0 S 19 29 1010.9 - - - - - - - - -
28/03:37pm 23.5 S 21 23 1010.9 - - - - - - - - -
28/03:30pm 24.1 SW 16 21 1010.9 - - - - - - - - -
28/03:00pm 24.0 SW 17 21 1010.8 - - - - - - - - -
28/02:30pm 24.2 SW 18 21 1010.9 - - - - - - - - -
28/02:00pm 24.3 SW 17 21 1010.9 - - - - - - - - -
28/01:30pm 24.6 SW 18 22 1011.1 - - - - - - - - -
28/01:00pm 24.4 SW 18 22 1011.4 - - - - - - - - -
28/12:30pm 24.4 SSW 18 22 1011.6 - - - - - - - - -
28/12:00pm 24.6 SW 18 23 1012.1 - - - - - - - - -
28/11:30am 24.7 SW 17 20 1012.4 - - - - - - - - -
28/11:00am 24.5 SW 17 22 1012.8 - - - - - - - - -
28/10:30am 24.7 SW 17 21 1013.2 - - - - - - - - -
28/10:00am 24.3 SW 16 19 1013.4 - - - - - - - - -
28/09:30am 23.5 SSW 15 18 1013.5 - - - - - - - - -
28/09:00am 23.6 SSW 13 17 1013.4 - - - - - - - - -
28/08:30am 23.3 SSW 12 15 1012.9 - - - - - - - - -
28/08:00am 23.3 SSW 12 16 1012.7 - - - - - - - - -
28/07:30am 23.2 SSW 12 15 1012.4 - - - - - - - - -
28/07:00am 22.9 SSW 14 17 1012.3 - - - - - - - - -
28/06:30am 22.7 SSW 15 18 1012.0 - - - - - - - - -
28/06:00am 22.2 SSW 16 18 1011.8 - - - - - - - - -
28/05:30am 22.4 SSW 17 20 1011.6 - - - - - - - - -
28/05:00am 22.3 SSW 18 24 1011.4 - - - - - - - - -
28/04:30am 22.3 SW 20 24 1011.5 - - - - - - - - -
28/04:00am 22.4 SSW 20 23 1011.2 - - - - - - - - -
28/03:30am 22.6 SSW 19 22 1010.9 - - - - - - - - -
28/03:00am 22.3 S 17 20 1010.7 - - - - - - - - -
28/02:30am 22.3 SSW 18 21 1011.1 - - - - - - - - -
28/02:00am 22.4 S 19 23 1011.2 - - - - - - - - -
28/01:30am 22.1 SSW 18 22 1011.9 - - - - - - - - -
28/01:00am 22.1 SSW 20 25 1012.0 - - - - - - - - -
28/12:30am 21.8 SSW 21 24 1012.0 - - - - - - - - -
28/12:00am 22.6 SSW 23 27 1012.2 - - - - - - - - -
 
Date/Time
EST
Temp
°C
Wind Pressure Rain since
9am
mm
Weather Cloud Vis
km
Sea
Height
m
Swell
Dir  Spd
kts
Gust
kts
hPa Trend Height
m
Period
s
Dir
27/11:30pm 23.2 SW 25 30 1012.0 - - - - - - - - -
27/11:00pm 23.6 SSW 20 24 1012.4 - - - - - - - - -
27/10:30pm 24.0 SSW 19 22 1012.4 - - - - - - - - -
27/10:00pm 23.9 SSW 19 23 1012.4 - - - - - - - - -
27/09:30pm 24.0 SSW 18 22 1012.5 - - - - - - - - -
27/09:00pm 24.1 SSW 17 20 1012.4 - - - - - - - - -
27/08:30pm 24.3 SSW 17 20 1012.5 - - - - - - - - -
27/08:00pm 24.3 S 16 18 1012.4 - - - - - - - - -
27/07:30pm 24.2 SSW 16 18 1012.3 - - - - - - - - -
27/07:00pm 24.2 SSW 16 19 1012.1 - - - - - - - - -
27/06:30pm 24.6 S 16 19 1011.7 - - - - - - - - -
27/06:00pm 24.3 SSW 16 18 1011.3 - - - - - - - - -
27/05:30pm 24.3 SSW 13 15 1011.0 - - - - - - - - -
27/05:00pm 24.5 SSW 11 13 1010.6 - - - - - - - - -
27/04:30pm 24.8 S 10 11 1010.1 - - - - - - - - -
27/04:00pm 24.7 S 9 11 1009.8 - - - - - - - - -
27/03:30pm 25.0 S 10 11 1009.5 - - - - - - - - -
27/03:00pm 25.4 SSW 11 13 1009.6 - - - - - - - - -
27/02:30pm 26.3 SSW 9 11 1009.6 - - - - - - - - -
27/02:00pm 26.4 SSW 8 10 1009.8 - - - - - - - - -
27/01:30pm 26.3 SSW 8 9 1010.0 - - - - - - - - -
27/01:00pm 26.1 SW 8 9 1010.3 - - - - - - - - -
27/12:30pm 26.2 SW 13 14 1010.7 - - - - - - - - -
27/12:00pm 26.2 SW 15 19 1011.2 - - - - - - - - -
27/11:30am 26.6 SW 14 19 1011.7 - - - - - - - - -
27/11:00am 28.3 W 10 12 1012.2 - - - - - - - - -
27/10:30am 27.7 W 10 11 1012.7 - - - - - - - - -
27/10:00am 27.8 W 10 12 1013.0 - - - - - - - - -
27/09:30am 27.4 W 11 13 1013.2 - - - - - - - - -
27/09:00am 27.2 W 11 13 1013.3 - - - - - - - - -
27/08:30am 26.9 WNW 11 14 1013.1 - - - - - - - - -
27/08:00am 26.5 WNW 11 13 1013.0 - - - - - - - - -
27/07:30am 25.3 WNW 3 13 1012.7 - - - - - - - - -
27/07:00am 24.7 W 1 12 1012.3 - - - - - - - - -
27/06:30am 25.1 NW 11 13 1011.9 - - - - - - - - -
27/06:00am 24.5 NW 12 14 1011.6 - - - - - - - - -
27/05:30am 24.6 NW 12 13 1011.4 - - - - - - - - -
27/05:00am 24.4 NW 12 14 1011.4 - - - - - - - - -
27/04:30am 24.4 NW 12 14 1011.2 - - - - - - - - -
27/04:00am 24.3 WNW 13 15 1011.1 - - - - - - - - -
27/03:30am 24.4 NW 12 14 1010.9 - - - - - - - - -
27/03:00am 24.4 NNW 12 14 1010.9 - - - - - - - - -
27/02:30am 24.4 NW 13 15 1010.9 - - - - - - - - -
27/02:00am 24.4 NNW 14 16 1011.1 - - - - - - - - -
27/01:30am 24.3 NNW 15 18 1011.3 - - - - - - - - -
27/01:00am 24.4 NNW 14 16 1011.8 - - - - - - - - -
27/12:30am 24.4 N 17 19 1011.8 - - - - - - - - -
27/12:00am 24.3 N 13 16 1011.8 - - - - - - - - -
 
Date/Time
EST
Temp
°C
Wind Pressure Rain since
9am
mm
Weather Cloud Vis
km
Sea
Height
m
Swell
Dir  Spd
kts
Gust
kts
hPa Trend Height
m
Period
s
Dir
26/11:30pm 24.4 N 13 15 1012.3 - - - - - - - - -
26/11:00pm 24.3 N 12 15 1012.4 - - - - - - - - -
26/10:30pm 24.2 N 11 14 1013.0 - - - - - - - - -
26/10:00pm 24.2 N 10 13 1013.2 - - - - - - - - -
26/09:30pm 24.3 N 10 12 1013.4 - - - - - - - - -
26/09:00pm 24.2 N 13 16 1013.1 - - - - - - - - -
26/08:30pm 24.6 N 13 17 1012.7 - - - - - - - - -
26/08:00pm 24.6 N 15 19 1012.4 - - - - - - - - -
26/07:30pm 24.7 N 15 19 1012.1 - - - - - - - - -
26/07:00pm 24.4 NNE 12 14 1012.0 - - - - - - - - -
26/06:30pm 24.3 NNE 11 13 1012.0 - - - - - - - - -
26/06:00pm 24.1 N 9 11 1012.0 - - - - - - - - -
26/05:30pm 24.5 N 8 10 1011.7 - - - - - - - - -
26/05:00pm 24.9 N 10 11 1011.4 - - - - - - - - -
26/04:30pm 26.1 NW 7 8 1011.4 - - - - - - - - -
26/04:00pm 26.4 NW 6 8 1011.4 - - - - - - - - -
26/03:30pm 26.5 NW 8 9 1011.3 - - - - - - - - -
26/03:00pm 26.7 NW 7 9 1011.4 - - - - - - - - -
26/02:30pm 26.9 NW 8 9 1011.6 - - - - - - - - -
26/02:00pm 27.2 NW 7 9 1011.6 - - - - - - - - -
26/01:30pm 27.0 NW 8 9 1011.9 - - - - - - - - -
26/01:00pm 26.8 NW 7 9 1012.4 - - - - - - - - -
26/12:30pm 27.4 NNW 9 11 1012.6 - - - - - - - - -
26/12:00pm 27.7 N 7 10 1013.0 - - - - - - - - -
26/11:30am 27.6 N 8 10 1013.5 - - - - - - - - -
26/11:00am 27.1 N 6 8 1013.8 - - - - - - - - -
26/10:00am 27.0 N 6 8 1014.3 - - - - - - - - -
26/09:30am 26.3 N 5 7 1014.4 - - - - - - - - -
26/09:00am 26.8 N 7 9 1014.4 - - - - - - - - -
26/08:30am 26.4 CALM 0 3 1014.7 - - - - - - - - -
26/08:00am 26.1 CALM 0 2 1014.7 - - - - - - - - -
26/07:30am 25.5 CALM 0 2 1014.5 - - - - - - - - -
26/07:00am 24.8 CALM 0 - 1014.3 - - - - - - - - -
26/06:30am 24.3 N 5 6 1014.4 - - - - - - - - -
26/06:00am 23.7 N 5 7 1014.4 - - - - - - - - -
26/05:30am 23.5 N 6 9 1014.0 - - - - - - - - -
26/05:00am 23.3 N 5 7 1013.7 - - - - - - - - -
26/04:30am 23.5 NNE 6 8 1013.4 - - - - - - - - -

Other Formats:

Comma delimited format used in spreadsheet applications
http://www.bom.gov.au/fwo/IDQ60701/IDQ60701.94394.axf

JavaScript Object Notation format (JSON) in row-major order
http://www.bom.gov.au/fwo/IDQ60701/IDQ60701.94394.json